Terminal Aerodrome Forecast
Issued by NWS

Home | Current Version | Previous Version | Text Only | Print | Product List | Glossary On
Versions: 1 2 3 4 5 6 7 8 9 10 11 12 13 14 15 16 17 18 19 20 21 22 23 24
000
FTUS42 KRAH 241133
TAFRWI
TAF
KRWI 241133Z 2412/2512 23010KT P6SM SCT015 BKN250
      TEMPO 2412/2414 24012G20KT BKN018
     FM241900 26009KT P6SM VCTS SCT035CB BKN080
      TEMPO 2420/2424 VRB15G30KT 3SM -SHRA BKN020 BKN035 OVC120
     FM250100 25003KT P6SM VCSH FEW035 SCT090 BKN250=

USA.gov is the U.S. government's official web portal to all federal, state and local government web resources and services.